Time;durP1;ratioP1;P1;durP2;ratioP2;P2;SDS_P1;SDS_P2;PMS_P1;PMS_P2;Temp;Humidity;BMP_temperature;BMP_pressure;BME280_temperature;BME280_humidity;BME280_pressure;Samples;Min_cycle;Max_cycle;Signal;HPM_P1;HPM_P2
2021/12/04 00:00:21;;;;;;;4.85;2.70;;;0.60;72.10;;;-1.66;79.71;95146.63;4967422;28;20038;-67
2021/12/04 00:02:48;;;;;;;5.57;3.08;;;0.60;71.90;;;-1.63;79.89;95138.63;4973834;28;20688;-67
2021/12/04 00:05:14;;;;;;;5.78;3.60;;;0.60;72.00;;;-1.64;79.91;95132.66;4975562;28;20572;-67
2021/12/04 00:07:40;;;;;;;6.38;3.70;;;0.60;72.20;;;-1.65;80.01;95125.88;4972246;28;20043;-67
2021/12/04 00:10:06;;;;;;;6.07;3.10;;;0.60;72.20;;;-1.66;80.07;95111.34;4938491;28;20101;-67
2021/12/04 00:12:33;;;;;;;4.70;3.10;;;0.60;72.60;;;-1.65;79.87;95107.00;4972359;28;20031;-67
2021/12/04 00:15:00;;;;;;;6.03;3.20;;;0.60;72.70;;;-1.66;79.83;95107.97;4965799;28;20074;-67
2021/12/04 00:17:26;;;;;;;6.22;3.05;;;0.60;72.60;;;-1.65;80.17;95094.13;4959221;28;20062;-67
2021/12/04 00:19:52;;;;;;;6.20;3.08;;;0.60;72.80;;;-1.66;80.10;95079.59;4942669;28;20039;-67
2021/12/04 00:22:18;;;;;;;5.80;2.88;;;0.60;73.00;;;-1.66;80.30;95093.31;4969912;28;20118;-67
2021/12/04 00:24:43;;;;;;;7.47;3.47;;;0.60;72.30;;;-1.68;79.87;95074.59;4982778;28;20089;-67
2021/12/04 00:27:09;;;;;;;5.38;3.28;;;0.60;72.20;;;-1.71;79.96;95076.63;4963932;28;20077;-66
2021/12/04 00:29:35;;;;;;;6.10;3.25;;;0.50;72.20;;;-1.74;80.05;95064.03;4989025;28;20108;-67
2021/12/04 00:32:08;;;;;;;5.45;3.13;;;0.40;72.40;;;-1.73;79.90;95066.47;4979950;28;20054;-67
2021/12/04 00:34:38;;;;;;;4.75;2.67;;;0.50;72.30;;;-1.72;79.60;95068.09;4962724;28;20114;-67
2021/12/04 00:37:19;;;;;;;5.78;3.10;;;0.50;72.30;;;-1.72;79.93;95062.94;4946464;28;20086;-66
2021/12/04 00:50:42;;;;;;;3.50;2.30;;;0.40;71.90;;;-1.69;79.47;95030.91;4973988;28;20068;-67
2021/12/04 00:53:08;;;;;;;5.20;3.15;;;0.40;71.70;;;-1.68;79.13;95022.22;4964250;28;20051;-66
2021/12/04 00:55:33;;;;;;;5.68;3.60;;;0.50;71.90;;;-1.62;79.28;95029.38;4968576;28;20062;-67
2021/12/04 00:57:59;;;;;;;6.07;3.85;;;0.60;71.90;;;-1.60;79.38;95014.59;4967891;28;20126;-68
2021/12/04 01:00:25;;;;;;;5.90;3.00;;;0.70;71.80;;;-1.55;79.20;95028.69;4967492;28;20109;-67
2021/12/04 01:02:51;;;;;;;7.97;4.55;;;0.70;71.30;;;-1.52;78.65;95024.22;4971614;28;20045;-68
2021/12/04 01:05:17;;;;;;;11.98;7.03;;;0.70;71.40;;;-1.51;79.27;95028.41;4973698;28;20065;-67
2021/12/04 01:07:43;;;;;;;10.27;5.53;;;0.80;71.80;;;-1.47;79.21;95027.97;4965523;28;20077;-67
2021/12/04 01:10:10;;;;;;;5.63;2.65;;;0.80;71.60;;;-1.44;79.15;95019.16;4977515;28;20093;-66
2021/12/04 01:12:36;;;;;;;7.57;4.30;;;0.80;71.40;;;-1.43;78.72;95006.09;4955163;28;20034;-66
2021/12/04 01:15:02;;;;;;;7.82;4.43;;;0.80;71.30;;;-1.41;79.01;95017.09;4953819;28;20026;-66
2021/12/04 01:17:28;;;;;;;6.65;2.70;;;0.90;71.00;;;-1.39;78.97;95002.28;4974345;28;20050;-66
2021/12/04 01:19:54;;;;;;;6.05;2.90;;;0.90;70.80;;;-1.36;78.87;95014.91;4975108;28;20533;-67
2021/12/04 01:22:21;;;;;;;7.90;4.13;;;0.90;70.80;;;-1.34;78.90;95022.50;4972854;28;20043;-66
2021/12/04 01:24:47;;;;;;;9.38;4.30;;;0.90;70.20;;;-1.33;79.03;95022.38;4962067;28;20037;-65
2021/12/04 01:27:14;;;;;;;5.20;2.33;;;0.90;70.80;;;-1.31;78.48;95022.22;4966027;28;20089;-67
2021/12/04 01:29:41;;;;;;;6.75;3.53;;;0.90;70.60;;;-1.29;78.74;95007.41;4970147;28;20581;-66
2021/12/04 01:32:08;;;;;;;5.80;3.25;;;0.90;70.70;;;-1.29;78.52;95018.53;4963835;28;20384;-67
2021/12/04 01:34:35;;;;;;;4.88;2.40;;;0.80;70.70;;;-1.29;78.38;95023.69;4949636;28;20047;-65
2021/12/04 01:37:04;;;;;;;5.57;2.38;;;0.80;71.30;;;-1.29;78.82;95015.97;4987207;28;20045;-66
2021/12/04 01:39:30;;;;;;;4.00;2.05;;;0.80;71.50;;;-1.28;78.77;95029.66;4942318;28;20039;-66
2021/12/04 01:41:56;;;;;;;4.10;2.40;;;0.80;71.60;;;-1.27;78.97;95019.22;4955724;28;20038;-66
2021/12/04 01:44:22;;;;;;;4.32;2.10;;;0.90;71.60;;;-1.26;78.54;95002.78;4942449;28;20030;-66
2021/12/04 01:46:48;;;;;;;4.72;2.50;;;1.00;71.20;;;-1.21;78.72;95004.09;4975001;28;20117;-66
2021/12/04 01:49:14;;;;;;;4.03;1.98;;;1.10;71.00;;;-1.20;78.51;95000.56;4940620;28;20571;-67
2021/12/04 01:51:39;;;;;;;4.50;1.88;;;0.90;70.70;;;-1.20;78.40;95010.88;4954998;28;20107;-65
2021/12/04 01:54:05;;;;;;;3.92;2.03;;;0.90;70.00;;;-1.20;77.91;94992.81;4971773;28;20109;-70
2021/12/04 01:56:33;;;;;;;3.88;2.25;;;0.90;69.60;;;-1.20;77.94;94979.94;4975276;28;20043;-66
2021/12/04 01:58:59;;;;;;;3.75;2.22;;;0.90;69.30;;;-1.16;77.94;94976.09;4976014;28;20101;-66
2021/12/04 02:01:25;;;;;;;3.42;2.00;;;1.00;69.70;;;-1.13;78.19;94955.16;4958305;28;20027;-66
2021/12/04 02:03:50;;;;;;;6.60;2.00;;;1.10;70.40;;;-1.09;78.29;94972.00;4987629;28;20051;-66
2021/12/04 02:06:16;;;;;;;3.50;2.00;;;1.20;71.80;;;-1.06;79.16;94969.94;4972246;28;20027;-67
2021/12/04 02:08:43;;;;;;;4.45;2.20;;;1.20;72.60;;;-1.03;79.61;94951.56;4973955;28;20034;-66
2021/12/04 02:11:08;;;;;;;3.42;1.92;;;1.30;72.60;;;-0.99;79.72;94931.44;4973232;28;20054;-67
2021/12/04 02:13:34;;;;;;;4.32;2.03;;;1.30;72.80;;;-0.96;79.84;94936.31;4991647;28;20070;-66
2021/12/04 02:16:03;;;;;;;2.90;1.92;;;1.40;72.70;;;-0.95;80.23;94928.41;4958175;28;20038;-67
2021/12/04 02:18:29;;;;;;;4.30;2.20;;;1.40;73.00;;;-0.94;80.30;94934.38;4975341;28;20081;-67
2021/12/04 02:20:55;;;;;;;3.67;2.15;;;1.40;73.50;;;-0.92;80.18;94917.78;4958154;28;20038;-67
2021/12/04 02:23:20;;;;;;;4.68;2.25;;;1.40;73.40;;;-0.86;80.85;94920.78;4957904;28;20034;-67
2021/12/04 02:25:46;;;;;;;4.40;2.45;;;1.40;73.90;;;-0.85;81.06;94910.28;4956859;28;20038;-67
2021/12/04 02:28:12;;;;;;;3.53;1.92;;;1.50;74.10;;;-0.84;80.87;94911.91;4988670;28;20110;-66
2021/12/04 02:30:41;;;;;;;4.22;2.15;;;1.40;74.30;;;-0.83;81.06;94895.47;4957320;28;20034;-67
2021/12/04 02:33:13;;;;;;;3.53;2.03;;;1.40;74.20;;;-0.82;81.53;94886.75;4960459;28;20110;-68
2021/12/04 02:35:48;;;;;;;3.17;1.85;;;1.50;74.60;;;-0.82;82.48;94897.09;4976565;28;20423;-68
2021/12/04 02:38:15;;;;;;;3.67;2.10;;;1.50;75.00;;;-0.81;81.86;94896.13;4988335;28;20105;-67
2021/12/04 02:40:43;;;;;;;4.78;2.03;;;1.40;75.10;;;-0.79;81.92;94907.13;4968511;28;20038;-68
2021/12/04 02:43:09;;;;;;;3.40;1.65;;;1.60;75.30;;;-0.77;81.72;94896.63;4956716;28;20755;-68
2021/12/04 02:45:35;;;;;;;3.45;1.85;;;1.50;75.20;;;-0.76;81.91;94901.66;4971438;28;20038;-66
2021/12/04 02:48:01;;;;;;;4.43;2.08;;;1.50;75.00;;;-0.76;82.33;94911.97;4979375;28;20097;-66
2021/12/04 02:50:26;;;;;;;4.82;1.83;;;1.50;75.50;;;-0.76;82.37;94901.66;4971912;28;20035;-67
2021/12/04 02:52:52;;;;;;;3.42;2.00;;;1.50;75.60;;;-0.78;82.35;94893.25;4961596;28;20398;-68
2021/12/04 02:55:19;;;;;;;3.45;1.90;;;1.50;75.20;;;-0.76;82.16;94901.66;4973202;28;20038;-66
2021/12/04 02:57:45;;;;;;;5.15;2.25;;;1.50;74.90;;;-0.76;82.44;94888.75;4967682;28;20041;-67
2021/12/04 03:00:19;;;;;;;4.07;1.90;;;1.50;75.40;;;-0.76;83.31;94886.16;4973757;28;20586;-67
2021/12/04 03:02:45;;;;;;;4.80;2.17;;;1.60;75.10;;;-0.74;82.89;94879.06;4967301;28;20572;-66
2021/12/04 03:05:11;;;;;;;4.70;2.20;;;1.60;75.10;;;-0.73;82.68;94870.38;4986143;28;20050;-66
2021/12/04 03:07:38;;;;;;;4.45;2.50;;;1.60;75.10;;;-0.71;82.55;94883.94;4973317;28;20351;-66
2021/12/04 03:10:06;;;;;;;3.72;2.00;;;1.60;75.00;;;-0.70;83.02;94875.22;4972764;28;20115;-68
2021/12/04 03:12:32;;;;;;;4.43;2.15;;;1.60;75.00;;;-0.71;82.96;94878.75;4957825;28;20065;-68
2021/12/04 03:14:58;;;;;;;2.80;1.70;;;1.60;75.20;;;-0.72;82.79;94878.91;4981465;28;20039;-67
2021/12/04 03:17:25;;;;;;;3.42;1.88;;;1.40;75.20;;;-0.74;82.67;94876.50;4955910;28;20350;-67
2021/12/04 03:19:52;;;;;;;3.95;2.42;;;1.50;75.30;;;-0.74;82.83;94884.22;4967281;28;20031;-71
2021/12/04 03:22:19;;;;;;;3.00;2.00;;;1.50;75.40;;;-0.76;82.97;94873.25;4953979;28;20039;-71
2021/12/04 03:24:45;;;;;;;4.35;2.33;;;1.40;75.50;;;-0.78;83.11;94888.09;4990657;28;20105;-70
2021/12/04 03:27:13;;;;;;;4.07;2.10;;;1.30;76.10;;;-0.79;83.23;94876.13;4981528;28;20130;-71
2021/12/04 03:29:41;;;;;;;4.50;2.13;;;1.40;76.50;;;-0.80;83.25;94864.19;4943066;28;20042;-71
2021/12/04 03:32:36;;;;;;;4.13;1.90;;;1.40;76.70;;;-0.79;83.84;94868.38;4953894;28;20333;-71
2021/12/04 03:43:15;;;;;;;3.45;1.88;;;1.60;77.00;;;-0.72;84.49;94846.16;4983289;28;20050;-71
2021/12/04 03:45:44;;;;;;;4.55;1.95;;;1.60;77.10;;;-0.72;84.23;94833.25;4953618;28;20038;-71
2021/12/04 03:48:53;;;;;;;3.80;2.10;;;1.60;76.90;;;-0.72;84.77;94825.50;4960049;28;20549;-71
2021/12/04 03:51:02;;;;;;;4.18;2.35;;;1.60;77.00;;;-0.69;84.52;94825.22;4972909;28;20412;-71
2021/12/04 03:53:27;;;;;;;4.30;2.00;;;1.60;77.00;;;-0.69;84.85;94809.72;4987273;28;20070;-72
2021/12/04 03:55:53;;;;;;;3.00;1.67;;;1.60;77.10;;;-0.69;84.95;94804.56;4970213;28;20050;-70
2021/12/04 03:58:19;;;;;;;3.10;1.95;;;1.60;77.30;;;-0.70;85.09;94791.78;4972380;28;20247;-70
2021/12/04 04:00:45;;;;;;;5.35;2.20;;;1.50;77.70;;;-0.71;85.15;94788.41;4954809;28;20117;-71
2021/12/04 04:03:11;;;;;;;2.97;1.70;;;1.60;77.90;;;-0.69;85.72;94785.66;4955255;28;20046;-71
2021/12/04 04:05:37;;;;;;;4.72;2.03;;;1.60;78.30;;;-0.72;85.70;94767.91;4982289;28;20034;-71
2021/12/04 04:08:03;;;;;;;4.38;1.90;;;1.50;78.70;;;-0.73;86.34;94787.75;4987776;28;20192;-70
2021/12/04 04:10:29;;;;;;;2.65;1.80;;;1.50;79.10;;;-0.72;86.26;94767.91;4961426;28;20090;-70
2021/12/04 04:12:55;;;;;;;4.80;1.75;;;1.50;79.10;;;-0.74;86.29;94768.06;4937266;28;20465;-71
2021/12/04 04:15:21;;;;;;;5.80;2.03;;;1.50;79.40;;;-0.74;86.64;94760.31;4970513;28;20035;-71
2021/12/04 04:17:48;;;;;;;5.35;2.00;;;1.40;79.80;;;-0.74;87.47;94764.66;4952840;28;20050;-70
2021/12/04 04:20:16;;;;;;;6.38;1.95;;;1.40;80.20;;;-0.75;87.73;94763.84;4980150;28;20481;-71
2021/12/04 04:22:42;;;;;;;5.13;1.80;;;1.40;80.20;;;-0.75;87.75;94755.31;4988255;28;20073;-72
2021/12/04 04:25:08;;;;;;;4.25;2.22;;;1.40;80.50;;;-0.79;87.67;94747.06;4975655;28;20053;-71
2021/12/04 04:27:34;;;;;;;5.13;2.20;;;1.40;80.70;;;-0.78;88.11;94742.72;4937166;28;20028;-71
2021/12/04 04:30:01;;;;;;;4.65;2.10;;;1.30;80.70;;;-0.80;88.27;94740.28;4982556;28;20383;-72
2021/12/04 04:32:26;;;;;;;3.10;1.90;;;1.30;81.20;;;-0.82;88.34;94736.25;4965023;28;20027;-72
2021/12/04 04:34:55;;;;;;;3.35;2.00;;;1.30;81.50;;;-0.81;88.58;94737.84;4972157;28;20477;-74
2021/12/04 04:37:38;;;;;;;5.90;2.17;;;1.30;81.70;;;-0.80;88.77;94729.97;4955393;28;20109;-71
2021/12/04 04:59:27;;;;;;;3.03;1.90;;;1.30;83.00;;;-0.80;91.01;94722.22;4978942;28;20029;-71
2021/12/04 05:10:24;;;;;;;4.03;2.20;;;1.50;83.10;;;-0.72;91.07;94705.94;4966522;28;20517;-71
2021/12/04 05:13:05;;;;;;;3.25;1.80;;;1.30;84.20;;;-0.72;91.79;94709.34;4972509;28;20050;-72
2021/12/04 05:21:07;;;;;;;4.15;1.90;;;1.60;84.00;;;-0.60;92.38;94698.75;4982273;28;20037;-72
2021/12/04 05:23:39;;;;;;;4.10;1.80;;;1.60;84.20;;;-0.57;93.18;94693.28;4975404;28;20042;-71
2021/12/04 05:26:06;;;;;;;4.80;1.65;;;1.70;84.30;;;-0.52;92.28;94685.84;4959731;28;20411;-71
2021/12/04 05:28:32;;;;;;;3.17;1.90;;;1.80;84.00;;;-0.48;92.88;94676.84;4954119;28;20502;-72
2021/12/04 05:30:58;;;;;;;3.53;1.75;;;1.80;84.20;;;-0.46;92.91;94669.72;4957698;28;20168;-73
2021/12/04 05:33:24;;;;;;;13.38;8.88;;;1.80;84.30;;;-0.41;93.69;94675.25;4979043;28;20133;-70
2021/12/04 05:35:50;;;;;;;15.95;9.32;;;1.80;84.60;;;-0.36;93.37;94676.41;4983538;28;20031;-69
2021/12/04 05:38:16;;;;;;;5.90;2.33;;;2.00;84.40;;;-0.32;93.63;94666.56;4963204;28;20054;-70
2021/12/04 05:40:42;;;;;;;2.00;1.50;;;1.90;84.50;;;-0.31;93.33;94668.19;4975447;28;20502;-69
2021/12/04 05:43:08;;;;;;;3.65;1.83;;;1.90;84.40;;;-0.28;93.30;94670.44;4989512;28;20488;-70
2021/12/04 05:45:39;;;;;;;2.67;1.60;;;1.90;84.70;;;-0.26;93.99;94660.75;4975219;28;20030;-69
2021/12/04 05:48:13;;;;;;;6.05;2.78;;;1.90;84.60;;;-0.23;94.24;94651.88;4990789;28;20453;-69
2021/12/04 05:50:56;;;;;;;12.00;6.50;;;2.00;84.80;;;-0.18;94.53;94658.22;4992804;28;20109;-69
2021/12/04 05:53:28;;;;;;;3.05;1.70;;;2.10;85.20;;;-0.15;94.54;94652.72;4949952;28;20093;-68
2021/12/04 05:55:54;;;;;;;3.28;1.30;;;2.10;84.70;;;-0.12;94.52;94647.22;4946855;28;20031;-69
2021/12/04 05:58:31;;;;;;;3.25;1.40;;;2.10;84.50;;;-0.08;94.67;94643.34;4974059;28;20042;-69
2021/12/04 06:01:00;;;;;;;7.68;5.63;;;2.10;84.40;;;-0.04;94.43;94638.66;4990813;28;20038;-68
2021/12/04 06:03:26;;;;;;;6.05;2.03;;;2.20;84.80;;;-0.02;94.92;94631.56;4970389;28;20031;-69
2021/12/04 06:05:51;;;;;;;8.82;4.50;;;2.20;84.20;;;0.01;95.07;94630.47;4971095;28;20411;-70
2021/12/04 06:08:19;;;;;;;4.28;1.75;;;2.30;84.10;;;0.03;94.82;94618.19;4990737;28;20494;-69
2021/12/04 06:10:45;;;;;;;2.80;1.58;;;2.20;84.10;;;0.05;93.93;94626.56;4974951;28;20046;-69
2021/12/04 06:13:10;;;;;;;10.05;4.07;;;2.30;84.30;;;0.09;94.51;94625.28;4974195;28;20230;-68
2021/12/04 06:15:36;;;;;;;4.90;1.80;;;2.30;84.10;;;0.09;94.69;94623.50;4971365;28;20081;-68
2021/12/04 06:18:02;;;;;;;4.43;2.10;;;2.20;84.30;;;0.09;94.67;94622.69;4971929;28;20054;-69
2021/12/04 06:23:12;;;;;;;10.52;6.25;;;2.40;84.50;;;0.15;94.56;94622.03;4975074;28;20040;-69
2021/12/04 06:25:38;;;;;;;5.75;2.30;;;2.40;84.30;;;0.15;94.98;94616.88;4990781;28;20027;-69
2021/12/04 06:28:04;;;;;;;6.82;1.90;;;2.30;84.50;;;0.16;94.86;94613.31;4965800;28;20050;-70
2021/12/04 06:30:36;;;;;;;4.97;1.63;;;2.30;84.80;;;0.17;94.79;94610.56;4971743;28;20115;-69
2021/12/04 06:33:03;;;;;;;4.28;1.45;;;2.30;84.60;;;0.18;95.48;94608.78;4976241;28;20092;-69
2021/12/04 06:35:30;;;;;;;2.65;1.60;;;2.30;84.80;;;0.16;95.83;94619.28;5010500;28;20073;-69
2021/12/04 06:37:56;;;;;;;3.17;1.35;;;2.20;85.30;;;0.17;95.09;94609.75;5009825;28;20564;-69
2021/12/04 06:40:26;;;;;;;3.03;1.60;;;2.20;85.30;;;0.19;95.26;94613.00;5010428;28;20045;-69
2021/12/04 06:42:52;;;;;;;2.88;1.45;;;2.30;85.20;;;0.23;95.80;94614.31;4986022;28;20034;-69
2021/12/04 06:45:18;;;;;;;3.10;1.98;;;2.40;85.10;;;0.24;95.25;94610.75;4971252;28;20047;-68
2021/12/04 06:47:52;;;;;;;2.72;1.60;;;2.40;84.80;;;0.24;95.14;94605.59;4972291;28;20057;-69
2021/12/04 06:50:27;;;;;;;4.10;1.42;;;2.40;84.70;;;0.27;95.79;94610.44;4986491;28;20067;-69
2021/12/04 06:52:54;;;;;;;3.17;1.60;;;2.50;84.50;;;0.28;95.76;94607.69;4961825;28;20415;-69
2021/12/04 06:55:26;;;;;;;2.45;1.40;;;2.50;84.60;;;0.32;95.75;94604.75;4971272;28;20039;-69
2021/12/04 06:57:52;;;;;;;4.03;1.50;;;2.50;84.70;;;0.31;95.52;94611.72;4970580;28;20035;-69
2021/12/04 07:00:19;;;;;;;4.82;1.55;;;2.60;84.50;;;0.34;95.65;94608.78;4971087;28;20403;-68
2021/12/04 07:02:44;;;;;;;2.70;1.40;;;2.60;84.60;;;0.36;96.09;94606.84;4950625;28;20144;-69
2021/12/04 07:05:10;;;;;;;3.63;1.60;;;2.60;84.50;;;0.35;95.86;94600.06;4974265;28;20041;-68
2021/12/04 07:07:36;;;;;;;1.73;1.27;;;2.50;84.80;;;0.36;95.80;94587.94;4951250;28;20043;-69
2021/12/04 07:10:02;;;;;;;4.53;1.75;;;2.50;85.00;;;0.34;95.73;94585.53;4980715;28;21113;-71
2021/12/04 07:12:27;;;;;;;4.10;1.40;;;2.40;85.30;;;0.34;96.34;94584.72;4974005;28;20502;-69
2021/12/04 07:14:53;;;;;;;4.35;1.52;;;2.30;85.60;;;0.33;96.10;94583.09;4970155;28;20101;-70
2021/12/04 07:17:19;;;;;;;3.35;1.50;;;2.40;85.80;;;0.34;95.81;94590.69;4971363;28;20778;-69
2021/12/04 07:19:45;;;;;;;4.53;2.00;;;2.40;85.70;;;0.36;96.39;94578.41;4970793;28;20035;-69
2021/12/04 07:22:11;;;;;;;3.60;1.80;;;2.40;85.70;;;0.36;96.17;94562.88;4954273;28;20086;-69
2021/12/04 07:24:36;;;;;;;4.93;2.28;;;2.40;85.50;;;0.36;96.27;94568.06;4972947;28;20142;-69
2021/12/04 07:27:02;;;;;;;3.78;1.98;;;2.40;85.80;;;0.38;96.64;94576.47;4989448;28;20662;-68
2021/12/04 07:29:28;;;;;;;5.47;1.77;;;2.50;85.70;;;0.42;96.48;94575.16;4975721;28;20034;-70
2021/12/04 07:31:54;;;;;;;5.03;1.98;;;2.60;85.50;;;0.44;96.55;94577.56;4999424;28;20038;-73
2021/12/04 07:34:20;;;;;;;3.63;2.30;;;2.60;85.30;;;0.47;96.21;94570.31;4986623;28;20126;-74
2021/12/04 07:36:45;;;;;;;3.13;1.67;;;2.70;85.20;;;0.49;96.85;94568.38;4973422;28;20441;-74
2021/12/04 07:39:11;;;;;;;3.63;2.15;;;2.70;84.90;;;0.52;96.92;94560.28;4960915;28;20038;-73
2021/12/04 07:41:42;;;;;;;5.00;2.20;;;2.70;84.90;;;0.50;96.59;94549.28;4970061;28;20093;-74
2021/12/04 07:44:08;;;;;;;5.93;2.22;;;2.70;85.10;;;0.50;96.58;94546.72;4967446;28;20030;-73
2021/12/04 07:46:38;;;;;;;5.25;2.03;;;2.60;85.10;;;0.54;96.68;94550.56;4973591;28;20542;-69
2021/12/04 07:49:04;;;;;;;16.67;10.02;;;2.70;85.00;;;0.59;97.45;94553.47;4988949;28;20046;-70
2021/12/04 07:51:30;;;;;;;11.18;5.43;;;2.90;85.20;;;0.64;97.37;94547.78;4973467;28;20470;-71
2021/12/04 07:53:56;;;;;;;6.13;2.75;;;2.90;84.80;;;0.68;97.15;94550.84;4955510;28;20038;-72
2021/12/04 07:56:22;;;;;;;5.53;2.47;;;3.00;84.70;;;0.69;97.23;94542.94;4972868;28;20042;-73
2021/12/04 07:58:47;;;;;;;4.28;1.70;;;2.90;84.50;;;0.71;96.91;94541.00;4953814;28;20031;-72
2021/12/04 08:01:13;;;;;;;4.20;2.05;;;3.00;84.70;;;0.76;97.21;94545.66;4972509;28;20034;-73
2021/12/04 08:03:39;;;;;;;18.00;11.18;;;3.10;84.50;;;0.81;96.89;94538.19;4971408;28;20112;-73
2021/12/04 08:06:05;;;;;;;13.93;8.82;;;3.10;84.40;;;0.86;97.24;94535.91;4988304;28;20037;-72
2021/12/04 08:08:31;;;;;;;6.82;3.20;;;3.20;84.40;;;0.92;97.47;94532.66;4988776;28;20493;-73
2021/12/04 08:10:57;;;;;;;6.15;2.53;;;3.30;84.50;;;0.96;97.98;94539.13;4971287;28;20034;-75
2021/12/04 08:13:22;;;;;;;8.60;2.75;;;3.30;84.40;;;1.00;97.13;94537.81;4955708;28;20426;-75
2021/12/04 08:15:48;;;;;;;20.50;13.20;;;3.30;84.60;;;1.06;97.68;94539.72;4988704;28;20034;-75
2021/12/04 08:18:14;;;;;;;53.00;33.88;;;3.40;84.50;;;1.10;97.20;94535.78;4956621;28;20054;-75
2021/12/04 08:20:39;;;;;;;14.15;8.65;;;3.40;84.30;;;1.13;96.80;94539.84;4956985;28;20035;-74
2021/12/04 08:23:05;;;;;;;5.68;2.90;;;3.40;84.20;;;1.15;97.37;94540.50;4973813;28;20069;-74
2021/12/04 08:25:31;;;;;;;11.07;7.13;;;3.40;83.90;;;1.18;96.84;94543.53;4969706;28;20591;-75
2021/12/04 08:27:58;;;;;;;6.53;4.00;;;3.50;84.10;;;1.21;97.03;94532.84;4953314;28;20383;-74
2021/12/04 08:30:28;;;;;;;4.80;2.25;;;3.60;83.80;;;1.25;96.86;94537.69;4937717;28;20031;-75
2021/12/04 08:32:56;;;;;;;5.15;2.35;;;3.50;83.80;;;1.27;96.74;94530.53;4983703;28;20428;-75
2021/12/04 08:35:24;;;;;;;4.15;2.10;;;3.60;83.60;;;1.30;97.11;94525.03;4981654;28;20548;-76
2021/12/04 08:37:54;;;;;;;7.65;2.30;;;3.60;83.80;;;1.33;96.97;94527.28;4945132;28;20344;-76
2021/12/04 08:40:20;;;;;;;5.05;2.72;;;3.70;83.50;;;1.37;96.50;94525.97;4990340;28;20034;-76
2021/12/04 08:42:46;;;;;;;6.20;3.03;;;3.70;83.40;;;1.38;96.92;94530.97;4988667;28;20593;-76
2021/12/04 08:45:13;;;;;;;5.65;2.85;;;3.70;83.50;;;1.40;96.85;94529.03;4988651;28;20034;-75
2021/12/04 08:47:39;;;;;;;6.35;2.35;;;3.70;83.30;;;1.40;97.05;94536.00;4969335;28;20029;-76
2021/12/04 08:50:14;;;;;;;5.32;2.20;;;3.60;83.60;;;1.39;97.32;94524.81;4970267;28;20506;-75
2021/12/04 08:52:40;;;;;;;4.82;2.72;;;3.60;83.80;;;1.41;96.55;94529.81;4969115;28;20031;-76
2021/12/04 08:55:06;;;;;;;7.18;2.53;;;3.60;84.00;;;1.43;96.31;94525.28;4970824;28;20129;-72
2021/12/04 08:57:32;;;;;;;3.72;2.13;;;3.60;83.90;;;1.46;96.89;94537.88;4971059;28;20061;-71
2021/12/04 08:59:58;;;;;;;4.43;2.47;;;3.80;83.60;;;1.49;96.68;94527.19;4982812;28;20038;-72
2021/12/04 09:02:23;;;;;;;4.93;2.95;;;3.80;83.70;;;1.51;96.62;94522.63;4958634;28;20140;-73
2021/12/04 09:04:49;;;;;;;6.25;2.70;;;3.80;83.70;;;1.52;96.80;94522.44;4970636;28;20074;-73
2021/12/04 09:07:18;;;;;;;5.43;2.40;;;3.90;83.50;;;1.54;96.75;94514.50;4954231;28;20541;-73
2021/12/04 09:09:45;;;;;;;6.25;2.50;;;3.90;83.30;;;1.57;96.85;94516.75;4953430;28;20066;-73
2021/12/04 09:12:16;;;;;;;107.78;66.50;;;3.90;83.40;;;1.61;97.55;94523.22;4962941;28;20071;-74
2021/12/04 09:14:44;;;;;;;50.00;31.15;;;4.00;83.30;;;1.63;96.68;94518.66;4986729;28;20621;-69
2021/12/04 09:17:11;;;;;;;10.40;4.40;;;4.00;83.40;;;1.67;96.93;94514.75;4979564;28;20046;-73
2021/12/04 09:19:37;;;;;;;5.00;2.70;;;4.00;83.60;;;1.68;97.25;94508.59;4955705;28;20023;-75
2021/12/04 09:22:05;;;;;;;5.53;2.60;;;4.10;83.30;;;1.73;97.41;94506.28;4986694;28;20156;-68
2021/12/04 09:24:40;;;;;;;9.30;2.90;;;4.10;83.60;;;1.78;97.29;94513.53;4972131;28;20548;-69
2021/12/04 09:59:19;;;;;;;7.63;3.30;;;4.50;83.60;;;2.09;97.28;94487.50;4991429;28;20045;-70
2021/12/04 10:24:26;;;;;;;8.55;4.35;;;5.10;84.00;;;2.81;98.38;94432.38;4983289;28;20089;-69
2021/12/04 10:34:51;;;;;;;7.55;3.38;;;5.50;83.50;;;3.08;98.43;94419.50;4948914;28;20034;-71
2021/12/04 10:37:23;;;;;;;8.25;3.45;;;5.50;83.50;;;3.11;98.41;94413.13;4955078;28;20039;-71
2021/12/04 10:39:52;;;;;;;7.13;3.53;;;5.50;83.90;;;3.14;98.56;94411.97;4969854;28;20027;-71
2021/12/04 10:42:21;;;;;;;5.57;3.10;;;5.50;83.80;;;3.16;98.51;94407.38;4946702;28;20529;-72
2021/12/04 10:44:54;;;;;;;6.15;3.30;;;5.60;84.00;;;3.17;99.26;94407.22;4957906;28;20143;-71
2021/12/04 10:47:27;;;;;;;8.90;4.40;;;5.40;84.30;;;3.19;99.12;94399.25;4947950;28;20064;-72
2021/12/04 10:55:18;;;;;;;34.53;13.27;;;5.60;84.30;;;3.30;99.31;94396.13;4987492;28;20157;-72
2021/12/04 10:58:17;;;;;;;33.90;14.00;;;5.70;84.00;;;3.33;98.94;94400.97;4987612;28;20542;-71
2021/12/04 11:03:37;;;;;;;29.38;10.85;;;5.80;83.40;;;3.38;99.46;94381.22;4987679;28;20503;-72
2021/12/04 11:26:18;;;;;;;24.33;13.48;;;7.00;81.00;;;4.28;98.46;94333.59;4973192;28;20065;-75
2021/12/04 11:34:52;;;;;;;32.55;16.10;;;7.10;80.90;;;4.39;98.88;94328.88;4988216;28;20022;-75
2021/12/04 11:42:35;;;;;;;4.38;3.10;;;7.20;80.60;;;4.68;97.99;94307.72;4985656;28;20041;-68
2021/12/04 11:45:12;;;;;;;4.57;3.00;;;7.20;81.10;;;4.75;97.08;94307.72;4959676;28;20041;-72
2021/12/04 11:47:41;;;;;;;4.80;2.90;;;7.30;81.10;;;4.80;97.28;94306.16;4974729;28;20101;-77
2021/12/04 11:50:25;;;;;;;4.93;2.88;;;7.30;81.00;;;4.84;97.93;94304.78;4969052;28;20450;-77
2021/12/04 11:52:53;;;;;;;3.97;2.67;;;7.40;80.40;;;4.87;98.28;94304.38;4976941;28;20042;-77
2021/12/04 11:55:21;;;;;;;5.50;2.85;;;7.40;81.70;;;4.90;98.11;94298.75;4969124;28;20502;-76
2021/12/04 11:57:47;;;;;;;5.57;2.55;;;7.40;81.70;;;4.94;98.36;94293.94;4953540;28;20182;-76
2021/12/04 12:00:26;;;;;;;5.53;2.38;;;7.30;82.20;;;4.98;98.70;94296.97;4953328;28;20043;-76
2021/12/04 12:03:05;;;;;;;3.55;2.22;;;7.20;82.70;;;5.00;98.40;94294.97;4969802;28;20023;-72
2021/12/04 12:05:31;;;;;;;5.28;3.40;;;7.20;82.90;;;5.01;98.19;94293.97;4983271;28;20077;-72
2021/12/04 12:07:58;;;;;;;9.27;5.47;;;7.20;83.90;;;5.05;98.63;94297.78;4962023;28;20324;-72
2021/12/04 12:10:28;;;;;;;10.13;7.10;;;7.20;83.50;;;5.06;98.58;94289.78;4963479;28;20052;-72
2021/12/04 12:13:04;;;;;;;7.43;4.73;;;7.20;83.60;;;5.08;98.59;94286.97;4954543;28;20035;-69
2021/12/04 12:15:34;;;;;;;3.05;1.90;;;7.10;83.80;;;5.11;99.36;94281.34;4989015;28;20038;-70
2021/12/04 12:18:18;;;;;;;3.17;1.67;;;7.30;84.10;;;5.17;99.53;94280.53;4970425;28;20038;-70
2021/12/04 12:20:52;;;;;;;1.27;1.02;;;7.30;84.10;;;5.18;99.63;94269.13;4970962;28;20027;-69
2021/12/04 12:23:22;;;;;;;2.42;1.40;;;7.30;84.10;;;5.23;99.72;94266.72;4969653;28;20038;-69
2021/12/04 12:31:51;;;;;;;2.30;1.10;;;7.50;84.70;;;5.42;100.00;94257.28;4987161;28;20186;-69
2021/12/04 12:37:19;;;;;;;2.55;1.75;;;7.50;85.10;;;5.52;100.00;94249.84;4988203;28;20486;-68
2021/12/04 12:40:04;;;;;;;3.15;1.90;;;7.60;85.20;;;5.55;100.00;94246.84;4985927;28;20035;-68
2021/12/04 12:42:34;;;;;;;1.05;0.60;;;7.60;85.20;;;5.60;100.00;94241.00;4975069;28;20035;-69
2021/12/04 12:45:24;;;;;;;1.70;0.80;;;7.60;85.30;;;5.69;100.00;94237.19;4969642;28;20038;-68
2021/12/04 12:47:58;;;;;;;3.47;0.73;;;7.80;85.70;;;5.74;100.00;94242.59;4957314;28;20030;-68
2021/12/04 12:50:38;;;;;;;1.90;1.10;;;7.90;85.20;;;5.82;100.00;94237.16;4980026;28;20034;-68
2021/12/04 12:53:11;;;;;;;1.50;0.93;;;8.10;85.00;;;5.86;100.00;94233.13;4957124;28;20042;-69
2021/12/04 12:55:38;;;;;;;2.53;1.35;;;8.10;85.10;;;5.89;100.00;94226.72;4977426;28;20042;-69
2021/12/04 12:58:20;;;;;;;2.30;1.00;;;8.10;84.80;;;5.92;100.00;94227.13;4985437;28;20355;-69
2021/12/04 13:12:14;;;;;;;2.80;1.63;;;8.20;85.60;;;6.09;100.00;94209.97;4974299;28;20081;-69
2021/12/04 13:14:40;;;;;;;1.70;1.17;;;8.40;85.10;;;6.13;100.00;94208.59;4962884;28;20053;-67
2021/12/04 13:17:11;;;;;;;2.35;1.45;;;8.50;84.80;;;6.18;100.00;94207.94;4992101;28;20042;-68
2021/12/04 13:19:40;;;;;;;3.88;1.92;;;8.40;85.10;;;6.20;100.00;94211.16;4965064;28;20134;-67
2021/12/04 13:22:09;;;;;;;3.40;2.40;;;8.40;85.10;;;6.21;100.00;94204.13;4974954;28;20383;-68
2021/12/04 13:24:37;;;;;;;3.55;2.42;;;8.30;85.30;;;6.16;100.00;94191.69;4991622;28;20118;-69
2021/12/04 13:29:46;;;;;;;3.45;2.15;;;8.20;85.80;;;6.18;100.00;94194.91;4973439;28;20084;-69
2021/12/04 13:32:14;;;;;;;19.02;13.75;;;8.20;85.50;;;6.18;100.00;94200.13;4979358;28;20148;-68